Terminal Aerodrome Forecast
Issued by NWS St Louis, MO

Home | Current Version | Previous Version | Text Only | Print | Product List | Glossary On
Versions: 1 2 3 4 5 6 7 8 9 10 11 12 13 14 15 16 17 18 19 20 21 22 23 24 25 26 27
000
FTUS43 KLSX 212200 AAB
TAFSTL
TAF AMD
KSTL 212228Z 2122/2224 25010KT P6SM VCSH OVC040
      TEMPO 2122/2124 5SM -SHRA OVC030
     FM220000 27010KT 6SM -SHRA VCTS SCT020 OVC035CB
     FM220300 31010KT P6SM BKN030
     FM220700 32012KT P6SM SKC
     FM221500 35013KT P6SM SKC=

USA.gov is the U.S. government's official web portal to all federal, state and local government web resources and services.